Moore, Texas
Current Conditions -  °F | °C
As of 6:15 AM on Sunday 25 Jan 2015 (Local Time) from KCVB Reporting Station
Clear Clear  
Wind Chill:   Ceiling: Unl
Heat Index:   Visibility: 10mi
Dew Point:   Wind: 7mph
Humidity: 89%   Direction: 280°W
Pressure: 30.07"   Gusts: NA
Location:  29.06°N, 99.01°W
Report Text: KCVB 251215Z AUTO 28006KT 10SM CLR 04/03 A3007 RMK AO2 T00430026
Loading
Personal Weather Stations






























Interactive Weather Map New forecast layout! Learn more

10-Day Weather Forecast

Advertisements
Track Severe Weather on mobile